Flight Track Log - Related Links

Times and Time Zones

All times are in EDT time to prevent confusion due to time zone crossing. See the N328AJ flight status page for this flight to view local times or setup timezone preferences in your user account.

Time Position Orientation Groundspeed Altitude Reporting Facility
EDT Latitude Longitude Course Direction KTS MPH feet Rate Location/Type
Mon 02:23:02 PM 38.9667 -77.5333 311° West 177 204 2,600  Level Potomac TRACON
Mon 02:24:02 PM 39.0000 -77.5833 311° West 201 231 4,300 1,600 Climbing Potomac TRACON
Mon 02:25:02 PM 39.0667 -77.6167 339° North 230 265 5,800 1,450 Climbing Potomac TRACON
Mon 02:26:02 PM 39.1000 -77.6833 303° West 222 255 7,200 1,100 Climbing Potomac TRACON
Mon 02:27:02 PM 39.1167 -77.7500 288° West 217 250 8,000 450 Climbing Potomac TRACON
Mon 02:28:02 PM 39.1333 -77.8167 288° West 226 260 8,100  Climbing Potomac TRACON
Mon 02:29:02 PM 39.1667 -77.9000 297° West 248 285 8,000  Descending Potomac TRACON
Mon 02:30:02 PM 39.1833 -77.9833 284° West 256 295 8,100 50 Climbing Potomac TRACON
Mon 02:31:02 PM 39.2167 -78.0833 293° West 260 299 8,100  Level Potomac TRACON
Mon 02:32:02 PM 39.2333 -78.1667 285° West 254 292 8,100 308 Level Potomac TRACON
Mon 02:32:59 PM 39.2514 -78.2317 290° West 259 298 8,700 864 Climbing Washington Center
Mon 02:34:00 PM 39.2725 -78.3103 289° West 247 284 9,800 694 Climbing Washington Center
Mon 02:35:00 PM 39.2936 -78.3942 288° West 247 284 10,100 356 Climbing Washington Center
Mon 02:35:58 PM 39.3081 -78.4831 282° West 247 284 10,500 750 Climbing Washington Center
Mon 02:37:00 PM 39.3228 -78.5642 283° West 241 277 11,600 1,033 Climbing Washington Center
Mon 02:38:00 PM 39.3375 -78.6453 283° West 241 277 12,600 1,000 Climbing Washington Center
Mon 02:39:00 PM 39.3519 -78.7239 283° West 236 272 13,600 1,008 Climbing Washington Center
Mon 02:39:59 PM 39.3628 -78.7942 281° West 224 258 14,600 872 Climbing Washington Center
Mon 02:41:52 PM 39.3936 -78.9292 287° West 208 239 16,100 447 Climbing Indianapolis Center
Mon 02:43:07 PM 39.4308 -79.0344 295° West 246 283 16,000 -44 Descending Cleveland Center
Mon 02:44:09 PM 39.4589 -79.1136 295° West 243 280 16,000  Level Cleveland Center
Mon 02:45:11 PM 39.4858 -79.1953 293° West 246 283 16,000  Level Cleveland Center
Mon 02:46:13 PM 39.5133 -79.2747 294° West 242 278 16,000  Level Cleveland Center
Mon 02:47:15 PM 39.5461 -79.3714 294° West 242 278 16,000  Level Cleveland Center
Mon 02:48:17 PM 39.5725 -79.4519 293° West 241 277 16,000  Level Cleveland Center
Mon 02:49:19 PM 39.5992 -79.5297 294° West 236 272 16,000  Level Cleveland Center
Mon 02:50:21 PM 39.6250 -79.6078 293° West 235 270 16,000  Level Cleveland Center
Mon 02:51:22 PM 39.6508 -79.6850 294° West 233 268 16,000  Level Cleveland Center
Mon 02:52:24 PM 39.6761 -79.7639 293° West 235 270 16,000  Level Cleveland Center
Mon 02:53:26 PM 39.7031 -79.8400 295° West 233 268 16,000  Level Cleveland Center
Mon 02:54:28 PM 39.7336 -79.9331 293° West 234 269 16,000  Level Cleveland Center
Mon 02:55:30 PM 39.7589 -80.0108 293° West 233 268 16,000  Level Cleveland Center
Mon 02:56:32 PM 39.7853 -80.0911 293° West 240 276 16,000  Level Cleveland Center
Mon 02:57:34 PM 39.7983 -80.1728 282° West 240 276 16,000  Level Cleveland Center
Mon 02:58:36 PM 39.7978 -80.2572 270° West 235 270 16,000  Level Cleveland Center
Mon 02:59:38 PM 39.7964 -80.3425 269° West 236 272 16,000  Level Cleveland Center
Mon 03:00:40 PM 39.7950 -80.4442 269° West 234 269 16,000  Level Cleveland Center
Mon 03:01:42 PM 39.7936 -80.5294 269° West 235 270 16,000  Level Cleveland Center
Mon 03:02:44 PM 39.7919 -80.6156 269° West 238 274 16,000  Level Cleveland Center
Mon 03:03:28 PM 39.7886 -80.6764 266° West 235 270 16,000 56 Level Indianapolis Center
Mon 03:04:31 PM 39.7906 -80.7631 272° West 239 275 16,100 48 Climbing Indianapolis Center
Mon 03:05:32 PM 39.8047 -80.8456 283° West 235 270 16,100  Level Indianapolis Center
Mon 03:06:33 PM 39.8178 -80.9317 281° West 241 277 16,100  Level Indianapolis Center
Mon 03:07:35 PM 39.8342 -81.0344 282° West 242 278 16,100 -290 Level Indianapolis Center
Mon 03:08:37 PM 39.8339 -81.1231 270° West 248 285 15,500 -726 Descending Indianapolis Center
Mon 03:09:39 PM 39.8272 -81.2158 265° West 256 295 14,600 -1,171 Descending Indianapolis Center
Mon 03:10:40 PM 39.8194 -81.3128 264° West 267 307 13,100 -1,268 Descending Indianapolis Center
Mon 03:11:42 PM 39.8125 -81.4106 265° West 272 313 12,000 -968 Descending Indianapolis Center
Mon 03:12:44 PM 39.8047 -81.5058 264° West 264 304 11,100 -871 Descending Indianapolis Center
Mon 03:13:46 PM 39.7978 -81.5978 264° West 259 298 10,200 -484 Descending Indianapolis Center
Mon 03:14:48 PM 39.7906 -81.6872 264° West 252 290 10,100 -98 Descending Indianapolis Center
Mon 03:15:49 PM 39.7825 -81.7906 264° West 241 277 10,000 -49 Descending Indianapolis Center
Mon 03:16:51 PM 39.7769 -81.8747 265° West 236 272 10,000  Level Indianapolis Center
Mon 03:17:53 PM 39.7692 -81.9617 263° West 241 277 10,000  Level Indianapolis Center
Mon 03:18:11 PM 39.7664 -81.9908 263° West 240 276 10,000  Level Indianapolis Center
Mon 03:18:53 PM 39.7608 -82.0553 264° West 239 275 10,000  Level Indianapolis Center
Mon 03:18:55 PM 39.7625 -82.0467 76° East 239 275 10,000  Level Indianapolis Center
Mon 03:19:57 PM 39.7564 -82.1333 265° West 238 274 10,000 -92 Level Indianapolis Center
Mon 03:20:00 PM 39.7589 -82.1475 283° West 239 275 9,900 -1,082 Descending Indianapolis Center
Mon 03:20:58 PM 39.7908 -82.2083 304° West 243 280 8,900 -1,180 Descending Indianapolis Center
Mon 03:21:01 PM 39.7986 -82.2214 308° West 254 292 8,700 -1,448 Descending Indianapolis Center
Mon 03:21:56 PM 39.8339 -82.2947 302° West 256 295 7,500 -1,424 Descending Indianapolis Center
Mon 03:22:00 PM 39.8372 -82.3006 307° West 253 291 7,300 -1,273 Descending Indianapolis Center
Mon 03:23:02 PM 39.8756 -82.3753 304° West 252 290 6,100 -1,238 Descending Indianapolis Center
Mon 03:23:03 PM 39.8789 -82.3806 309° West 251 289 6,000 -1,065 Descending Indianapolis Center
Mon 03:24:04 PM 39.9081 -82.4533 298° West 250 288 5,000 -927 Descending Indianapolis Center
Mon 03:25:06 PM 39.9283 -82.5386 287° West 248 285 4,100 -783 Descending Indianapolis Center
Mon 03:25:59 PM 39.9494 -82.6178 289° West 239 275 3,500 -689 Descending Indianapolis Center
Mon 03:26:07 PM 39.9503 -82.6189 314° West 243 280 3,400 -627 Descending Indianapolis Center
Mon 03:27:06 PM 39.9711 -82.7031 288° West 230 265 2,800 -581 Descending Indianapolis Center
Mon 03:27:09 PM 39.9714 -82.6975 86° East 237 273 2,800 -787 Level Indianapolis Center
Mon 03:28:07 PM 39.9867 -82.7844 283° West 207 238 2,000 -387 Descending Indianapolis Center
Mon 03:28:11 PM 39.9919 -82.7825 16° North 232 267 2,400 -689 Climbing Indianapolis Center
Mon 03:29:08 PM 39.9894 -82.8450 267° West 150 173 1,300 -968 Descending Indianapolis Center
Mon 03:29:13 PM 39.9892 -82.8375 93° East 196 226 1,400 1,200 Climbing Indianapolis Center

Login

Don't have an account? Register now (free) for customized features, flight alerts, and more!